createdAt,value
2019-05-11T00:02:09.880Z,8.60
2019-05-11T00:04:39.199Z,8.50
2019-05-11T00:07:08.355Z,9.23
2019-05-11T00:09:57.083Z,8.53
2019-05-11T00:12:12.651Z,10.70
2019-05-11T00:14:42.991Z,8.60
2019-05-11T00:17:12.145Z,8.23
2019-05-11T00:19:41.599Z,8.53
2019-05-11T00:22:10.973Z,12.50
2019-05-11T00:24:40.296Z,11.70
2019-05-11T00:27:09.877Z,8.98
2019-05-11T00:29:47.077Z,8.63
2019-05-11T00:32:17.146Z,8.10
2019-05-11T00:34:46.296Z,11.05
2019-05-11T00:37:21.821Z,11.05
2019-05-11T00:39:51.161Z,10.23
2019-05-11T00:42:20.569Z,11.78
2019-05-11T00:44:58.438Z,11.22
2019-05-11T00:47:28.654Z,11.73
2019-05-11T00:49:59.529Z,12.55
2019-05-11T00:55:03.888Z,10.88
2019-05-11T00:57:32.891Z,8.75
2019-05-11T01:00:02.153Z,8.25
2019-05-11T01:02:31.895Z,7.47
2019-05-11T01:05:04.594Z,7.50
2019-05-11T01:07:40.511Z,6.92
2019-05-11T01:10:22.941Z,7.60
2019-05-11T01:12:44.924Z,5.65
2019-05-11T01:15:15.397Z,7.87
2019-05-11T01:17:44.486Z,5.35
2019-05-11T01:20:18.725Z,7.20
2019-05-11T01:22:48.249Z,5.20
2019-05-11T01:25:18.717Z,5.12
2019-05-11T01:27:52.355Z,6.20
2019-05-11T01:30:22.437Z,6.05
2019-05-11T01:32:51.707Z,4.83
2019-05-11T01:35:21.529Z,4.58
2019-05-11T01:37:50.671Z,6.30
2019-05-11T01:40:21.840Z,6.15
2019-05-11T01:42:51.432Z,4.80
2019-05-11T01:45:22.590Z,4.30
2019-05-11T01:47:52.123Z,4.95
2019-05-11T01:50:21.550Z,4.85
2019-05-11T01:52:51.292Z,5.65
2019-05-11T01:55:26.462Z,4.80
2019-05-11T01:57:55.810Z,4.35
2019-05-11T02:00:25.724Z,4.12
2019-05-11T02:02:58.396Z,5.08
2019-05-11T02:05:29.049Z,4.90
2019-05-11T02:07:59.727Z,5.78
2019-05-11T02:10:36.359Z,5.10
2019-05-11T02:13:02.780Z,5.00
2019-05-11T02:15:32.495Z,5.40
2019-05-11T02:18:02.256Z,5.22
2019-05-11T02:20:31.475Z,5.33
2019-05-11T02:23:03.822Z,6.55
2019-05-11T02:25:34.865Z,5.72
2019-05-11T02:28:04.365Z,5.70
2019-05-11T02:30:38.350Z,7.05
2019-05-11T02:33:08.352Z,7.22
2019-05-11T02:35:37.805Z,6.83
2019-05-11T02:38:14.098Z,9.68
2019-05-11T02:40:44.474Z,8.63
2019-05-11T02:43:14.225Z,8.05
2019-05-11T02:45:48.922Z,9.65
2019-05-11T02:48:18.580Z,10.78
2019-05-11T02:50:48.269Z,12.55
2019-05-11T02:53:22.296Z,11.05
2019-05-11T02:55:54.866Z,13.13
2019-05-11T02:58:23.941Z,14.05
2019-05-11T03:01:04.098Z,10.13
2019-05-11T03:03:34.838Z,11.83
2019-05-11T03:06:23.288Z,11.88
2019-05-11T03:08:59.407Z,13.58
2019-05-11T03:11:29.696Z,14.00
2019-05-11T03:14:00.424Z,10.72
2019-05-11T03:16:37.988Z,11.10
2019-05-11T03:19:09.471Z,11.25
2019-05-11T03:21:38.805Z,14.28
2019-05-11T03:24:17.355Z,15.63
2019-05-11T03:26:47.321Z,13.72
2019-05-11T03:29:17.606Z,14.05
2019-05-11T03:31:49.234Z,13.43
2019-05-11T03:34:19.545Z,14.03
2019-05-11T03:36:48.762Z,12.98
2019-05-11T03:39:18.681Z,12.05
2019-05-11T03:41:47.940Z,11.22
2019-05-11T03:44:20.431Z,13.60
2019-05-11T03:46:49.460Z,13.48
2019-05-11T03:49:19.906Z,14.40
2019-05-11T03:51:59.513Z,11.78
2019-05-11T03:54:28.602Z,13.83
2019-05-11T03:56:57.821Z,12.65
2019-05-11T03:59:33.583Z,14.93
2019-05-11T04:02:01.857Z,13.30
2019-05-11T04:04:31.035Z,13.55
2019-05-11T04:07:06.623Z,14.73
2019-05-11T04:09:36.661Z,13.28
2019-05-11T04:12:06.236Z,13.78
2019-05-11T04:14:41.715Z,17.95
2019-05-11T04:17:12.650Z,14.30
2019-05-11T04:19:42.060Z,16.67
2019-05-11T04:22:38.376Z,16.15
2019-05-11T04:25:08.145Z,16.50
2019-05-11T04:27:39.137Z,15.83
2019-05-11T04:30:12.428Z,16.30
2019-05-11T04:32:42.369Z,20.05
2019-05-11T04:35:16.238Z,22.37
2019-05-11T04:38:10.900Z,24.12
2019-05-11T04:40:40.826Z,22.58
2019-05-11T04:43:10.528Z,26.42
2019-05-11T04:45:48.821Z,24.12
2019-05-11T04:48:19.012Z,26.33
2019-05-11T04:50:48.554Z,22.93
2019-05-11T04:53:27.745Z,25.05
2019-05-11T04:55:57.884Z,28.80
2019-05-11T04:58:27.679Z,23.60
2019-05-11T05:01:04.198Z,22.75
2019-05-11T05:03:40.806Z,24.12
2019-05-11T05:06:23.940Z,20.30
2019-05-11T05:08:36.887Z,21.73
2019-05-11T05:11:05.623Z,20.70
2019-05-11T05:13:34.888Z,20.23
2019-05-11T05:16:04.297Z,21.27
2019-05-11T05:18:34.846Z,22.45
2019-05-11T05:21:04.363Z,21.77
2019-05-11T05:23:35.125Z,21.45
2019-05-11T05:26:05.779Z,20.75
2019-05-11T05:28:45.698Z,25.88
2019-05-11T05:31:14.241Z,21.77
2019-05-11T05:33:43.158Z,22.37
2019-05-11T05:36:23.090Z,22.30
2019-05-11T05:38:52.769Z,25.32
2019-05-11T05:41:23.025Z,25.08
2019-05-11T05:44:01.814Z,24.10
2019-05-11T05:46:24.464Z,23.50
2019-05-11T05:48:54.044Z,23.70
2019-05-11T05:51:23.688Z,21.33
2019-05-11T05:53:52.696Z,23.00
2019-05-11T05:56:34.119Z,22.32
2019-05-11T05:59:05.035Z,24.67
2019-05-11T06:01:40.615Z,25.03
2019-05-11T06:04:17.666Z,23.47
2019-05-11T06:06:47.935Z,18.35
2019-05-11T06:09:19.039Z,24.07
2019-05-11T06:11:52.708Z,20.15
2019-05-11T06:14:22.935Z,21.45
2019-05-11T06:16:52.858Z,23.07
2019-05-11T06:19:29.199Z,17.67
2019-05-11T06:21:58.899Z,21.68
2019-05-11T06:24:28.691Z,22.13
2019-05-11T06:27:07.910Z,24.52
2019-05-11T06:29:38.661Z,22.20
2019-05-11T06:32:08.153Z,21.00
2019-05-11T06:34:44.422Z,20.82
2019-05-11T06:37:14.853Z,22.58
2019-05-11T06:39:44.651Z,22.22
2019-05-11T06:42:26.602Z,21.65
2019-05-11T06:44:56.854Z,20.37
2019-05-11T06:47:27.477Z,22.75
2019-05-11T06:50:05.949Z,23.25
2019-05-11T06:52:36.214Z,25.82
2019-05-11T06:55:07.470Z,19.35
2019-05-11T06:57:46.747Z,21.73
2019-05-11T07:00:37.798Z,22.20
2019-05-11T07:03:09.599Z,21.60
2019-05-11T07:05:48.832Z,23.38
2019-05-11T07:08:20.371Z,19.67
2019-05-11T07:10:49.992Z,24.70
2019-05-11T07:13:19.547Z,17.23
2019-05-11T07:15:48.909Z,18.70
2019-05-11T07:18:18.249Z,21.05
2019-05-11T07:20:50.880Z,21.25
2019-05-11T07:23:18.744Z,20.00
2019-05-11T07:25:48.890Z,19.55
2019-05-11T07:28:20.000Z,21.05
2019-05-11T07:30:49.942Z,22.13
2019-05-11T07:33:19.983Z,20.45
2019-05-11T07:36:17.598Z,23.67
2019-05-11T07:38:48.752Z,18.62
2019-05-11T07:41:18.679Z,21.10
2019-05-11T07:43:53.317Z,21.62
2019-05-11T07:46:23.497Z,22.07
2019-05-11T07:48:54.154Z,20.55
2019-05-11T07:51:44.324Z,21.00
2019-05-11T07:54:14.240Z,20.85
2019-05-11T07:56:44.177Z,22.32
2019-05-11T07:59:15.720Z,23.50
2019-05-11T08:01:47.737Z,21.40
2019-05-11T08:04:18.335Z,20.08
2019-05-11T08:06:48.069Z,21.93
2019-05-11T08:09:19.468Z,24.77
2019-05-11T08:11:49.300Z,19.40
2019-05-11T08:14:19.089Z,21.17
2019-05-11T08:16:49.369Z,22.27
2019-05-11T08:19:19.297Z,25.20
2019-05-11T08:21:51.228Z,23.25
2019-05-11T08:24:21.012Z,23.67
2019-05-11T08:26:51.663Z,22.50
2019-05-11T08:29:40.823Z,24.57
2019-05-11T08:32:11.634Z,26.52
2019-05-11T08:34:42.236Z,23.70
2019-05-11T08:37:12.492Z,23.95
2019-05-11T08:39:43.983Z,24.10
2019-05-11T08:42:14.139Z,25.55
2019-05-11T08:44:44.036Z,25.12
2019-05-11T08:47:14.556Z,28.50
2019-05-11T08:49:44.294Z,30.08
2019-05-11T08:52:14.267Z,27.85
2019-05-11T08:54:45.209Z,28.38
2019-05-11T08:57:34.397Z,27.85
2019-05-11T09:00:04.989Z,28.60
2019-05-11T09:02:35.366Z,29.57
2019-05-11T09:05:08.173Z,27.25
2019-05-11T09:10:40.352Z,29.50
2019-05-11T09:13:10.449Z,26.93
2019-05-11T09:15:40.912Z,24.35
2019-05-11T09:18:18.574Z,25.92
2019-05-11T09:20:48.762Z,24.32
2019-05-11T09:23:33.523Z,23.77
2019-05-11T09:25:58.178Z,21.48
2019-05-11T09:28:29.293Z,22.75
2019-05-11T09:30:58.382Z,20.30
2019-05-11T09:33:28.411Z,27.27
2019-05-11T09:35:58.480Z,20.90
2019-05-11T09:38:28.316Z,23.83
2019-05-11T09:40:59.265Z,23.70
2019-05-11T09:43:50.746Z,18.45
2019-05-11T09:46:39.390Z,16.50
2019-05-11T09:49:08.989Z,17.77
2019-05-11T09:51:39.479Z,16.40
2019-05-11T09:54:09.129Z,16.35
2019-05-11T09:56:38.991Z,15.85
2019-05-11T09:59:09.640Z,16.25
2019-05-11T10:01:40.250Z,15.63
2019-05-11T10:04:10.547Z,16.82
2019-05-11T10:06:48.086Z,17.52
2019-05-11T10:09:18.768Z,15.93
2019-05-11T10:11:48.209Z,15.75
2019-05-11T10:14:18.856Z,17.82
2019-05-11T10:16:49.339Z,13.75
2019-05-11T10:19:19.223Z,14.45
2019-05-11T10:21:48.923Z,15.55
2019-05-11T10:24:18.089Z,10.63
2019-05-11T10:26:48.785Z,14.07
2019-05-11T10:29:18.438Z,13.18
2019-05-11T10:31:48.219Z,16.07
2019-05-11T10:34:18.143Z,13.32
2019-05-11T10:36:48.678Z,12.07
2019-05-11T10:39:20.319Z,11.50
2019-05-11T10:41:50.438Z,11.70
2019-05-11T10:44:20.251Z,13.55
2019-05-11T10:46:50.381Z,17.77
2019-05-11T10:49:41.926Z,13.08
2019-05-11T10:52:11.760Z,13.62
2019-05-11T10:54:41.218Z,11.73
2019-05-11T10:57:11.251Z,12.15
2019-05-11T10:59:43.540Z,15.43
2019-05-11T11:02:14.299Z,12.47
2019-05-11T11:04:44.278Z,12.95
2019-05-11T11:07:16.427Z,14.10
2019-05-11T11:09:45.281Z,15.45
2019-05-11T11:12:15.840Z,15.20
2019-05-11T11:14:45.104Z,15.13
2019-05-11T11:17:14.441Z,15.23
2019-05-11T11:19:45.051Z,14.55
2019-05-11T11:25:39.374Z,22.27
2019-05-11T11:28:19.145Z,22.73
2019-05-11T11:30:49.775Z,16.48
2019-05-11T11:33:30.387Z,16.37
2019-05-11T11:36:37.928Z,23.30
2019-05-11T11:39:25.253Z,19.55
2019-05-11T11:41:58.547Z,18.42
2019-05-11T11:44:39.557Z,20.12
2019-05-11T11:47:10.512Z,23.95
2019-05-11T11:49:55.195Z,18.73
2019-05-11T11:52:38.279Z,21.48
2019-05-11T11:55:19.634Z,18.90
2019-05-11T11:58:23.628Z,32.90
2019-05-11T12:01:18.660Z,21.45
2019-05-11T12:04:11.400Z,21.17
2019-05-11T12:07:02.473Z,23.65
2019-05-11T12:09:52.663Z,21.60
2019-05-11T12:12:23.105Z,22.67
2019-05-11T12:14:53.302Z,25.35
2019-05-11T12:17:28.542Z,24.63
2019-05-11T12:19:59.137Z,27.10
2019-05-11T12:22:28.386Z,25.97
2019-05-11T12:24:58.956Z,25.43
2019-05-11T12:27:28.861Z,24.60
2019-05-11T12:29:58.480Z,24.90
2019-05-11T12:32:38.410Z,23.12
2019-05-11T12:35:09.685Z,26.90
2019-05-11T12:37:39.999Z,21.35
2019-05-11T12:40:11.408Z,22.75
2019-05-11T12:42:40.938Z,24.07
2019-05-11T12:45:13.457Z,22.73
2019-05-11T12:48:12.530Z,25.25
2019-05-11T12:50:43.812Z,19.85
2019-05-11T12:53:34.870Z,23.20
2019-05-11T12:56:04.741Z,18.15
2019-05-11T12:58:35.024Z,18.35
2019-05-11T13:01:08.742Z,20.40
2019-05-11T13:03:49.332Z,16.97
2019-05-11T13:06:19.219Z,21.25
2019-05-11T13:08:48.769Z,24.02
2019-05-11T13:11:18.869Z,20.50
2019-05-11T13:14:19.499Z,19.50
2019-05-11T13:16:51.384Z,17.00
2019-05-11T13:19:21.481Z,17.82
2019-05-11T13:24:48.042Z,18.50
2019-05-11T13:27:18.087Z,13.30
2019-05-11T13:30:09.754Z,13.68
2019-05-11T13:32:41.122Z,18.27
2019-05-11T13:35:31.109Z,15.25
2019-05-11T13:38:04.458Z,11.70
2019-05-11T13:40:35.191Z,11.80
2019-05-11T13:43:05.719Z,11.85
2019-05-11T13:45:35.536Z,9.03
2019-05-11T13:48:39.390Z,10.00
2019-05-11T13:51:09.461Z,10.70
2019-05-11T13:53:39.063Z,6.60
2019-05-11T13:56:18.406Z,8.68
2019-05-11T13:58:49.618Z,6.92
2019-05-11T14:01:20.411Z,9.13
2019-05-11T14:03:50.316Z,12.28
2019-05-11T14:06:22.192Z,8.48
2019-05-11T14:08:52.255Z,7.87
2019-05-11T14:11:23.061Z,7.08
2019-05-11T14:13:52.716Z,6.40
2019-05-11T14:16:23.056Z,6.17
2019-05-11T14:18:52.388Z,7.55
2019-05-11T14:21:23.719Z,5.45
2019-05-11T14:23:54.629Z,5.70
2019-05-11T14:26:24.447Z,4.80
2019-05-11T14:28:54.047Z,5.75
2019-05-11T14:31:23.488Z,8.50
2019-05-11T14:36:48.266Z,5.58
2019-05-11T14:39:19.317Z,7.00
2019-05-11T14:41:58.721Z,6.08
2019-05-11T14:44:28.582Z,5.42
2019-05-11T14:46:59.552Z,6.05
2019-05-11T14:49:37.894Z,6.95
2019-05-11T14:52:08.285Z,5.15
2019-05-11T14:54:38.240Z,4.70
2019-05-11T14:57:25.224Z,4.67
2019-05-11T15:00:28.782Z,5.35
2019-05-11T15:03:28.764Z,6.87
2019-05-11T15:05:58.226Z,6.90
2019-05-11T15:14:15.242Z,6.42
2019-05-11T15:17:18.635Z,5.15
2019-05-11T15:20:08.652Z,6.80
2019-05-11T15:22:37.903Z,7.03
2019-05-11T15:25:10.130Z,9.73
2019-05-11T15:27:48.803Z,7.47
2019-05-11T15:30:18.435Z,6.00
2019-05-11T15:32:48.451Z,5.10
2019-05-11T15:35:18.518Z,7.03
2019-05-11T15:37:48.664Z,7.58
2019-05-11T15:40:19.527Z,8.25
2019-05-11T15:42:48.903Z,7.75
2019-05-11T15:45:18.882Z,12.07
2019-05-11T15:47:48.788Z,11.08
2019-05-11T15:50:26.080Z,13.72
2019-05-11T15:52:58.190Z,7.72
2019-05-11T15:55:28.038Z,9.30
2019-05-11T15:58:23.698Z,8.40
2019-05-11T16:00:53.752Z,9.60
2019-05-11T16:03:24.839Z,14.78
2019-05-11T16:05:58.356Z,9.43
2019-05-11T16:08:28.487Z,12.13
2019-05-11T16:10:58.445Z,10.60
2019-05-11T16:13:28.568Z,9.65
2019-05-11T16:15:58.457Z,8.35
2019-05-11T16:18:27.658Z,9.40
2019-05-11T16:21:03.107Z,9.30
2019-05-11T16:23:33.110Z,9.23
2019-05-11T16:26:03.009Z,12.23
2019-05-11T16:28:55.068Z,7.35
2019-05-11T16:31:24.475Z,9.40
2019-05-11T16:33:53.950Z,8.70
2019-05-11T16:36:28.923Z,8.85
2019-05-11T16:38:58.312Z,7.42
2019-05-11T16:41:29.183Z,12.58
2019-05-11T16:43:59.165Z,8.43
2019-05-11T16:46:34.415Z,9.20
2019-05-11T16:49:04.221Z,9.48
2019-05-11T16:51:41.831Z,10.72
2019-05-11T16:54:11.723Z,14.33
2019-05-11T16:56:42.032Z,11.45
2019-05-11T16:59:20.918Z,13.32
2019-05-11T17:01:50.645Z,8.55
2019-05-11T17:04:20.580Z,15.48
2019-05-11T17:06:57.889Z,11.85
2019-05-11T17:09:28.763Z,11.60
2019-05-11T17:11:58.109Z,10.58
2019-05-11T17:14:34.271Z,12.35
2019-05-11T17:17:04.090Z,9.23
2019-05-11T17:19:43.748Z,16.95
2019-05-11T17:24:49.400Z,11.60
2019-05-11T17:27:19.008Z,13.15
2019-05-11T17:30:00.844Z,19.50
2019-05-11T17:32:31.845Z,13.93
2019-05-11T17:35:01.447Z,12.35
2019-05-11T17:37:38.049Z,14.15
2019-05-11T17:40:10.583Z,14.75
2019-05-11T17:42:40.440Z,14.70
2019-05-11T17:45:30.057Z,14.80
2019-05-11T17:47:59.113Z,13.25
2019-05-11T17:50:48.754Z,14.35
2019-05-11T17:53:25.230Z,16.93
2019-05-11T17:56:03.116Z,14.30
2019-05-11T17:58:33.017Z,13.32
2019-05-11T18:01:02.369Z,12.10
2019-05-11T18:06:22.186Z,17.70
2019-05-11T18:08:53.003Z,12.53
2019-05-11T18:11:30.408Z,14.83
2019-05-11T18:14:01.400Z,14.87
2019-05-11T18:16:32.686Z,25.12
2019-05-11T18:19:02.489Z,16.80
2019-05-11T18:21:33.231Z,15.03
2019-05-11T18:24:03.095Z,15.83
2019-05-11T18:26:40.435Z,13.72
2019-05-11T18:29:09.659Z,15.80
2019-05-11T18:31:39.588Z,12.03
2019-05-11T18:34:17.864Z,11.93
2019-05-11T18:36:48.534Z,10.23
2019-05-11T18:39:18.758Z,9.38
2019-05-11T18:41:49.714Z,13.75
2019-05-11T18:44:20.747Z,11.38
2019-05-11T18:47:10.992Z,10.75
2019-05-11T18:49:48.459Z,12.37
2019-05-11T18:52:18.801Z,14.23
2019-05-11T18:54:50.420Z,12.98
2019-05-11T18:57:29.708Z,13.00
2019-05-11T18:59:59.531Z,11.57
2019-05-11T19:02:30.630Z,14.33
2019-05-11T19:05:08.105Z,11.65
2019-05-11T19:07:38.782Z,12.82
2019-05-11T19:10:09.271Z,23.40
2019-05-11T19:12:41.606Z,28.52
2019-05-11T19:15:11.867Z,24.15
2019-05-11T19:17:50.647Z,28.10
2019-05-11T19:20:25.096Z,20.10
2019-05-11T19:22:55.288Z,15.88
2019-05-11T19:25:24.797Z,15.05
2019-05-11T19:28:02.533Z,11.00
2019-05-11T19:30:32.012Z,14.70
2019-05-11T19:33:02.220Z,16.20
2019-05-11T19:35:37.864Z,14.75
2019-05-11T19:38:08.714Z,15.53
2019-05-11T19:40:38.767Z,12.95
2019-05-11T19:43:08.151Z,18.55
2019-05-11T19:45:38.453Z,15.80
2019-05-11T19:48:08.614Z,11.05
2019-05-11T19:51:06.942Z,14.23
2019-05-11T19:53:31.541Z,13.25
2019-05-11T19:56:01.072Z,14.38
2019-05-11T19:58:52.024Z,13.55
2019-05-11T20:01:22.046Z,15.05
2019-05-11T20:03:51.431Z,21.37
2019-05-11T20:06:28.124Z,11.40
2019-05-11T20:08:58.073Z,13.83
2019-05-11T20:11:28.012Z,18.23
2019-05-11T20:13:58.997Z,15.58
2019-05-11T20:16:28.329Z,18.70
2019-05-11T20:19:00.289Z,10.32
2019-05-11T20:21:48.417Z,16.00
2019-05-11T20:24:18.676Z,13.40
2019-05-11T20:26:49.244Z,19.10
2019-05-11T20:29:18.759Z,12.85
2019-05-11T20:31:48.604Z,13.00
2019-05-11T20:34:18.293Z,10.32
2019-05-11T20:36:58.686Z,11.70
2019-05-11T20:39:29.258Z,13.38
2019-05-11T20:41:58.314Z,13.18
2019-05-11T20:44:53.030Z,11.73
2019-05-11T20:47:23.806Z,9.98
2019-05-11T20:49:55.309Z,14.35
2019-05-11T20:52:29.458Z,12.47
2019-05-11T20:54:59.271Z,13.58
2019-05-11T20:57:30.117Z,9.80
2019-05-11T21:00:07.966Z,10.78
2019-05-11T21:02:38.255Z,10.50
2019-05-11T21:05:09.039Z,10.80
2019-05-11T21:07:46.039Z,12.15
2019-05-11T21:10:38.133Z,13.32
2019-05-11T21:13:08.558Z,13.45
2019-05-11T21:15:47.682Z,7.28
2019-05-11T21:18:18.409Z,10.18
2019-05-11T21:20:48.337Z,11.75
2019-05-11T21:23:18.689Z,12.60
2019-05-11T21:25:53.225Z,8.45
2019-05-11T21:28:23.325Z,11.95
2019-05-11T21:31:12.954Z,10.88
2019-05-11T21:33:41.906Z,13.72
2019-05-11T21:36:28.464Z,8.65
2019-05-11T21:39:07.960Z,10.72
2019-05-11T21:41:38.668Z,11.68
2019-05-11T21:47:07.709Z,11.20
2019-05-11T21:49:37.809Z,6.85
2019-05-11T21:52:09.321Z,13.08
2019-05-11T21:54:38.953Z,16.00
2019-05-11T22:00:08.976Z,6.25
2019-05-11T22:03:02.151Z,9.08
2019-05-11T22:08:35.240Z,8.73
2019-05-11T22:11:10.534Z,12.90
2019-05-11T22:13:50.381Z,8.48
2019-05-11T22:16:19.954Z,8.23
2019-05-11T22:18:49.038Z,7.47
2019-05-11T22:21:19.042Z,10.55
2019-05-11T22:23:50.680Z,6.55
2019-05-11T22:26:19.466Z,9.40
2019-05-11T22:28:54.723Z,8.50
2019-05-11T22:31:35.313Z,10.18
2019-05-11T22:34:28.365Z,7.15
2019-05-11T22:36:58.217Z,8.63
2019-05-11T22:39:40.520Z,8.80
2019-05-11T22:42:29.056Z,6.37
2019-05-11T22:45:15.267Z,11.45
2019-05-11T22:47:49.645Z,11.63
2019-05-11T22:50:50.539Z,7.12
2019-05-11T22:53:19.268Z,11.03
2019-05-11T22:55:48.959Z,8.53
2019-05-11T22:58:18.812Z,9.23
2019-05-11T23:00:48.020Z,10.05
2019-05-11T23:03:19.149Z,8.53
2019-05-11T23:05:50.494Z,7.87
2019-05-11T23:08:42.154Z,7.35
2019-05-11T23:11:14.581Z,19.55
2019-05-11T23:13:49.252Z,10.70
2019-05-11T23:16:32.841Z,10.53
2019-05-11T23:19:09.543Z,12.98
2019-05-11T23:21:38.821Z,7.95
2019-05-11T23:27:02.490Z,10.45
2019-05-11T23:29:32.579Z,7.83
2019-05-11T23:32:08.650Z,10.28
2019-05-11T23:38:00.752Z,10.53
2019-05-11T23:40:29.775Z,9.93
2019-05-11T23:42:59.947Z,8.13
2019-05-11T23:45:33.196Z,10.98
2019-05-11T23:50:38.656Z,18.00
2019-05-11T23:53:10.363Z,10.18
2019-05-11T23:55:39.151Z,8.88
2019-05-11T23:58:08.888Z,10.65
